Terminal Aerodrome Forecast
Issued by NWS

Home | Current Version | Previous Version | Text Only | Print | Product List | Glossary On
Versions: 1 2 3 4 5 6 7 8 9 10 11 12 13 14 15 16 17
000
FTUS44 KMAF 032300
TAFPEQ
TAF
KPEQ 032325Z 0400/0424 15015G22KT P6SM BKN100
      TEMPO 0400/0404 VRB20G30KT -TSRA BKN040CB
     FM040400 13008KT P6SM BKN100
     FM041900 13018G25KT P6SM BKN040=

USA.gov is the U.S. government's official web portal to all federal, state and local government web resources and services.